MET'MAP v2.0
soon released !

Expected late october,
this new version will be
more efficient, smarter,
and hosted on a brand new
server x3 powerfull...
...and still free !


Not compatible ?
Try the mobile version !

LOG IN : | Subscribe | Disclaimer | Who is Orbifly ? |
ICAO code :

TAF - LFSO Nancy / Ochey - 15 Dec 2019 12:32 UTC
Data Sources :     NOAA   


- Airport Elevation : 1106 ft
- No reported NOTAMs.


LFSO - Nancy / Ochey

Latest METAR recorded : 2019/12/15 11:00 LFSO 151100Z AUTO 25014KT 9000 -RA FEW037/// SCT046/// BKN054/// ///TCU 08/07 Q1006
NO TAF


MET'MAP, your aeronautical weather chart ! - Copyright ORBIFLY December 2007

Programming & Development : Alexandra Zaïnal
Co-Developer : Marc-Olivier Méhu
Technical & hardware support : Manuel Goepfert
Concept & Financing : Baudouin d'Aumeries